sensor_id;sensor_type;location;lat;lon;timestamp;P1;durP1;ratioP1;P2;durP2;ratioP2
72319;SDS011;60269;52.502;16.732;2023-09-19T00:00:32;8.80;;;2.10;;
72319;SDS011;60269;52.502;16.732;2023-09-19T00:04:25;8.38;;;2.40;;
72319;SDS011;60269;52.502;16.732;2023-09-19T00:08:01;8.03;;;2.10;;
72319;SDS011;60269;52.502;16.732;2023-09-19T00:11:37;7.87;;;2.63;;
72319;SDS011;60269;52.502;16.732;2023-09-19T00:15:09;8.20;;;2.05;;
72319;SDS011;60269;52.502;16.732;2023-09-19T00:18:43;8.68;;;2.25;;
72319;SDS011;60269;52.502;16.732;2023-09-19T00:22:15;9.13;;;2.67;;
72319;SDS011;60269;52.502;16.732;2023-09-19T00:25:48;10.03;;;2.97;;
72319;SDS011;60269;52.502;16.732;2023-09-19T00:29:22;9.52;;;2.45;;
72319;SDS011;60269;52.502;16.732;2023-09-19T00:32:55;8.70;;;2.20;;
72319;SDS011;60269;52.502;16.732;2023-09-19T00:36:27;8.97;;;2.03;;
72319;SDS011;60269;52.502;16.732;2023-09-19T00:40:00;5.95;;;1.50;;
72319;SDS011;60269;52.502;16.732;2023-09-19T00:43:31;9.10;;;1.60;;
72319;SDS011;60269;52.502;16.732;2023-09-19T00:47:06;6.47;;;1.52;;
72319;SDS011;60269;52.502;16.732;2023-09-19T00:50:41;8.83;;;2.00;;
72319;SDS011;60269;52.502;16.732;2023-09-19T00:54:15;7.57;;;2.25;;
72319;SDS011;60269;52.502;16.732;2023-09-19T00:57:49;7.32;;;2.20;;
72319;SDS011;60269;52.502;16.732;2023-09-19T01:01:22;6.97;;;1.47;;
72319;SDS011;60269;52.502;16.732;2023-09-19T01:04:54;7.30;;;2.37;;
72319;SDS011;60269;52.502;16.732;2023-09-19T01:08:26;6.35;;;1.40;;
72319;SDS011;60269;52.502;16.732;2023-09-19T01:12:02;7.63;;;1.85;;
72319;SDS011;60269;52.502;16.732;2023-09-19T01:15:40;10.80;;;1.43;;
72319;SDS011;60269;52.502;16.732;2023-09-19T01:31:15;7.90;;;1.83;;
72319;SDS011;60269;52.502;16.732;2023-09-19T01:34:52;5.27;;;1.70;;
72319;SDS011;60269;52.502;16.732;2023-09-19T01:38:25;6.20;;;1.73;;
72319;SDS011;60269;52.502;16.732;2023-09-19T01:53:44;8.23;;;2.70;;
72319;SDS011;60269;52.502;16.732;2023-09-19T02:01:40;6.47;;;2.53;;
72319;SDS011;60269;52.502;16.732;2023-09-19T02:05:23;6.47;;;2.42;;
72319;SDS011;60269;52.502;16.732;2023-09-19T02:09:02;7.03;;;1.88;;
72319;SDS011;60269;52.502;16.732;2023-09-19T02:12:35;7.47;;;2.30;;
72319;SDS011;60269;52.502;16.732;2023-09-19T02:16:07;11.40;;;2.13;;
72319;SDS011;60269;52.502;16.732;2023-09-19T02:19:41;7.18;;;1.85;;
72319;SDS011;60269;52.502;16.732;2023-09-19T02:23:15;4.70;;;1.30;;
72319;SDS011;60269;52.502;16.732;2023-09-19T02:26:47;5.37;;;1.43;;
72319;SDS011;60269;52.502;16.732;2023-09-19T02:30:19;5.60;;;1.50;;
72319;SDS011;60269;52.502;16.732;2023-09-19T02:33:56;6.97;;;1.75;;
72319;SDS011;60269;52.502;16.732;2023-09-19T02:37:28;5.43;;;1.20;;
72319;SDS011;60269;52.502;16.732;2023-09-19T02:41:00;7.90;;;1.73;;
72319;SDS011;60269;52.502;16.732;2023-09-19T02:44:33;6.63;;;1.40;;
72319;SDS011;60269;52.502;16.732;2023-09-19T02:48:05;6.18;;;1.60;;
72319;SDS011;60269;52.502;16.732;2023-09-19T02:51:39;5.95;;;1.63;;
72319;SDS011;60269;52.502;16.732;2023-09-19T02:55:11;5.40;;;1.63;;
72319;SDS011;60269;52.502;16.732;2023-09-19T02:58:49;9.30;;;2.03;;
72319;SDS011;60269;52.502;16.732;2023-09-19T03:02:21;14.73;;;2.88;;
72319;SDS011;60269;52.502;16.732;2023-09-19T03:05:57;5.95;;;1.85;;
72319;SDS011;60269;52.502;16.732;2023-09-19T03:09:30;5.83;;;1.80;;
72319;SDS011;60269;52.502;16.732;2023-09-19T03:13:02;7.95;;;1.92;;
72319;SDS011;60269;52.502;16.732;2023-09-19T03:16:35;6.70;;;1.80;;
72319;SDS011;60269;52.502;16.732;2023-09-19T03:20:10;9.35;;;1.83;;
72319;SDS011;60269;52.502;16.732;2023-09-19T03:23:49;6.67;;;1.60;;
72319;SDS011;60269;52.502;16.732;2023-09-19T03:27:23;6.32;;;1.30;;
72319;SDS011;60269;52.502;16.732;2023-09-19T03:30:59;7.63;;;1.52;;
72319;SDS011;60269;52.502;16.732;2023-09-19T03:34:32;5.67;;;1.33;;
72319;SDS011;60269;52.502;16.732;2023-09-19T03:38:04;7.10;;;1.90;;
72319;SDS011;60269;52.502;16.732;2023-09-19T03:41:36;7.20;;;1.92;;
72319;SDS011;60269;52.502;16.732;2023-09-19T03:45:11;8.88;;;2.10;;
72319;SDS011;60269;52.502;16.732;2023-09-19T03:48:44;7.03;;;2.10;;
72319;SDS011;60269;52.502;16.732;2023-09-19T03:52:16;8.20;;;2.73;;
72319;SDS011;60269;52.502;16.732;2023-09-19T03:55:52;8.32;;;2.38;;
72319;SDS011;60269;52.502;16.732;2023-09-19T03:59:24;9.90;;;2.42;;
72319;SDS011;60269;52.502;16.732;2023-09-19T04:02:56;6.90;;;2.50;;
72319;SDS011;60269;52.502;16.732;2023-09-19T04:06:28;8.47;;;2.63;;
72319;SDS011;60269;52.502;16.732;2023-09-19T04:10:00;8.07;;;2.50;;
72319;SDS011;60269;52.502;16.732;2023-09-19T04:13:32;7.93;;;2.88;;
72319;SDS011;60269;52.502;16.732;2023-09-19T04:17:05;9.53;;;2.23;;
72319;SDS011;60269;52.502;16.732;2023-09-19T04:20:41;10.38;;;3.30;;
72319;SDS011;60269;52.502;16.732;2023-09-19T04:24:18;10.25;;;3.15;;
72319;SDS011;60269;52.502;16.732;2023-09-19T04:27:51;8.80;;;2.78;;
72319;SDS011;60269;52.502;16.732;2023-09-19T04:31:23;7.80;;;2.90;;
72319;SDS011;60269;52.502;16.732;2023-09-19T04:34:55;8.80;;;3.30;;
72319;SDS011;60269;52.502;16.732;2023-09-19T04:38:31;9.00;;;3.08;;
72319;SDS011;60269;52.502;16.732;2023-09-19T04:42:04;12.27;;;3.57;;
72319;SDS011;60269;52.502;16.732;2023-09-19T04:45:36;8.03;;;3.10;;
72319;SDS011;60269;52.502;16.732;2023-09-19T04:49:11;9.23;;;3.22;;
72319;SDS011;60269;52.502;16.732;2023-09-19T04:52:44;11.02;;;2.88;;
72319;SDS011;60269;52.502;16.732;2023-09-19T04:56:17;12.03;;;3.07;;
72319;SDS011;60269;52.502;16.732;2023-09-19T04:59:49;8.13;;;2.90;;
72319;SDS011;60269;52.502;16.732;2023-09-19T05:03:21;11.95;;;3.58;;
72319;SDS011;60269;52.502;16.732;2023-09-19T05:06:54;8.00;;;2.85;;
72319;SDS011;60269;52.502;16.732;2023-09-19T05:10:26;8.23;;;2.77;;
72319;SDS011;60269;52.502;16.732;2023-09-19T05:13:58;9.93;;;3.63;;
72319;SDS011;60269;52.502;16.732;2023-09-19T05:17:38;10.15;;;3.22;;
72319;SDS011;60269;52.502;16.732;2023-09-19T05:21:19;10.38;;;3.33;;
72319;SDS011;60269;52.502;16.732;2023-09-19T05:24:51;9.87;;;3.47;;
72319;SDS011;60269;52.502;16.732;2023-09-19T05:28:25;11.07;;;4.07;;
72319;SDS011;60269;52.502;16.732;2023-09-19T05:31:58;10.98;;;3.65;;
72319;SDS011;60269;52.502;16.732;2023-09-19T05:35:31;8.18;;;2.85;;
72319;SDS011;60269;52.502;16.732;2023-09-19T05:39:03;8.33;;;3.00;;
72319;SDS011;60269;52.502;16.732;2023-09-19T05:42:36;6.57;;;2.70;;
72319;SDS011;60269;52.502;16.732;2023-09-19T05:46:08;8.75;;;2.42;;
72319;SDS011;60269;52.502;16.732;2023-09-19T05:49:40;9.77;;;2.75;;
72319;SDS011;60269;52.502;16.732;2023-09-19T05:53:12;7.13;;;2.47;;
72319;SDS011;60269;52.502;16.732;2023-09-19T05:56:46;11.68;;;2.60;;
72319;SDS011;60269;52.502;16.732;2023-09-19T06:00:19;9.82;;;2.97;;
72319;SDS011;60269;52.502;16.732;2023-09-19T06:03:54;9.25;;;2.80;;
72319;SDS011;60269;52.502;16.732;2023-09-19T06:07:26;9.47;;;2.73;;
72319;SDS011;60269;52.502;16.732;2023-09-19T06:10:59;10.07;;;2.97;;
72319;SDS011;60269;52.502;16.732;2023-09-19T06:14:32;7.40;;;2.17;;
72319;SDS011;60269;52.502;16.732;2023-09-19T06:18:04;7.37;;;2.53;;
72319;SDS011;60269;52.502;16.732;2023-09-19T06:21:37;5.97;;;1.97;;
72319;SDS011;60269;52.502;16.732;2023-09-19T06:25:09;8.25;;;2.08;;
72319;SDS011;60269;52.502;16.732;2023-09-19T06:28:51;8.05;;;2.25;;
72319;SDS011;60269;52.502;16.732;2023-09-19T06:32:34;7.40;;;2.60;;
72319;SDS011;60269;52.502;16.732;2023-09-19T06:36:07;8.40;;;2.07;;
72319;SDS011;60269;52.502;16.732;2023-09-19T06:39:40;8.57;;;2.58;;
72319;SDS011;60269;52.502;16.732;2023-09-19T06:43:13;8.57;;;2.60;;
72319;SDS011;60269;52.502;16.732;2023-09-19T06:46:45;9.80;;;2.30;;
72319;SDS011;60269;52.502;16.732;2023-09-19T06:50:23;6.43;;;2.23;;
72319;SDS011;60269;52.502;16.732;2023-09-19T06:53:56;7.45;;;2.25;;
72319;SDS011;60269;52.502;16.732;2023-09-19T06:57:31;9.63;;;2.50;;
72319;SDS011;60269;52.502;16.732;2023-09-19T07:01:03;6.43;;;2.20;;
72319;SDS011;60269;52.502;16.732;2023-09-19T07:04:35;8.40;;;2.20;;
72319;SDS011;60269;52.502;16.732;2023-09-19T07:08:07;7.63;;;2.03;;
72319;SDS011;60269;52.502;16.732;2023-09-19T07:11:42;7.50;;;2.20;;
72319;SDS011;60269;52.502;16.732;2023-09-19T07:15:15;6.33;;;2.07;;
72319;SDS011;60269;52.502;16.732;2023-09-19T07:18:46;6.93;;;2.10;;
72319;SDS011;60269;52.502;16.732;2023-09-19T07:22:18;6.47;;;1.70;;
72319;SDS011;60269;52.502;16.732;2023-09-19T07:25:50;4.82;;;1.55;;
72319;SDS011;60269;52.502;16.732;2023-09-19T07:29:23;8.70;;;1.60;;
72319;SDS011;60269;52.502;16.732;2023-09-19T07:32:55;6.03;;;1.50;;
72319;SDS011;60269;52.502;16.732;2023-09-19T07:36:28;13.55;;;1.73;;
72319;SDS011;60269;52.502;16.732;2023-09-19T07:40:01;5.68;;;1.52;;
72319;SDS011;60269;52.502;16.732;2023-09-19T07:43:38;5.20;;;1.30;;
72319;SDS011;60269;52.502;16.732;2023-09-19T07:47:13;5.20;;;1.20;;
72319;SDS011;60269;52.502;16.732;2023-09-19T07:50:46;4.57;;;1.50;;
72319;SDS011;60269;52.502;16.732;2023-09-19T07:54:18;4.07;;;1.08;;
72319;SDS011;60269;52.502;16.732;2023-09-19T07:57:50;6.03;;;1.63;;
72319;SDS011;60269;52.502;16.732;2023-09-19T08:01:22;13.03;;;1.50;;
72319;SDS011;60269;52.502;16.732;2023-09-19T08:04:56;6.78;;;1.30;;
72319;SDS011;60269;52.502;16.732;2023-09-19T08:08:29;4.25;;;1.33;;
72319;SDS011;60269;52.502;16.732;2023-09-19T08:12:01;3.70;;;1.10;;
72319;SDS011;60269;52.502;16.732;2023-09-19T08:15:36;5.63;;;1.50;;
72319;SDS011;60269;52.502;16.732;2023-09-19T08:19:10;6.03;;;1.00;;
72319;SDS011;60269;52.502;16.732;2023-09-19T08:22:48;6.63;;;1.17;;
72319;SDS011;60269;52.502;16.732;2023-09-19T08:26:24;6.37;;;1.53;;
72319;SDS011;60269;52.502;16.732;2023-09-19T08:29:59;8.30;;;1.60;;
72319;SDS011;60269;52.502;16.732;2023-09-19T08:33:32;7.43;;;1.38;;
72319;SDS011;60269;52.502;16.732;2023-09-19T08:37:04;5.93;;;1.02;;
72319;SDS011;60269;52.502;16.732;2023-09-19T08:40:37;4.93;;;1.00;;
72319;SDS011;60269;52.502;16.732;2023-09-19T08:44:11;5.30;;;1.60;;
72319;SDS011;60269;52.502;16.732;2023-09-19T08:47:47;6.20;;;1.33;;
72319;SDS011;60269;52.502;16.732;2023-09-19T08:51:30;8.38;;;1.30;;
72319;SDS011;60269;52.502;16.732;2023-09-19T08:55:13;4.97;;;1.10;;
72319;SDS011;60269;52.502;16.732;2023-09-19T09:02:25;5.57;;;1.13;;
72319;SDS011;60269;52.502;16.732;2023-09-19T09:05:59;5.25;;;1.05;;
72319;SDS011;60269;52.502;16.732;2023-09-19T09:09:31;4.33;;;1.40;;
72319;SDS011;60269;52.502;16.732;2023-09-19T09:13:03;4.73;;;1.30;;
72319;SDS011;60269;52.502;16.732;2023-09-19T09:16:38;4.28;;;1.13;;
72319;SDS011;60269;52.502;16.732;2023-09-19T09:20:11;4.97;;;1.45;;
72319;SDS011;60269;52.502;16.732;2023-09-19T09:23:44;5.30;;;1.30;;
72319;SDS011;60269;52.502;16.732;2023-09-19T09:27:16;7.03;;;1.07;;
72319;SDS011;60269;52.502;16.732;2023-09-19T09:30:48;5.45;;;1.00;;
72319;SDS011;60269;52.502;16.732;2023-09-19T09:34:21;6.05;;;1.25;;
72319;SDS011;60269;52.502;16.732;2023-09-19T09:37:59;3.93;;;1.07;;
72319;SDS011;60269;52.502;16.732;2023-09-19T09:41:38;7.73;;;1.67;;
72319;SDS011;60269;52.502;16.732;2023-09-19T09:45:18;5.28;;;1.30;;
72319;SDS011;60269;52.502;16.732;2023-09-19T09:49:04;7.68;;;1.45;;
72319;SDS011;60269;52.502;16.732;2023-09-19T09:53:01;3.50;;;1.00;;
72319;SDS011;60269;52.502;16.732;2023-09-19T09:56:57;7.00;;;1.10;;
72319;SDS011;60269;52.502;16.732;2023-09-19T10:00:31;5.75;;;1.08;;
72319;SDS011;60269;52.502;16.732;2023-09-19T10:04:15;4.03;;;1.10;;
72319;SDS011;60269;52.502;16.732;2023-09-19T10:08:10;6.82;;;1.45;;
72319;SDS011;60269;52.502;16.732;2023-09-19T10:11:45;6.00;;;1.20;;
72319;SDS011;60269;52.502;16.732;2023-09-19T10:15:33;4.32;;;1.23;;
72319;SDS011;60269;52.502;16.732;2023-09-19T10:19:08;5.47;;;1.52;;
72319;SDS011;60269;52.502;16.732;2023-09-19T10:22:41;3.70;;;1.57;;
72319;SDS011;60269;52.502;16.732;2023-09-19T10:26:16;4.57;;;1.20;;
72319;SDS011;60269;52.502;16.732;2023-09-19T10:29:49;7.85;;;1.48;;
72319;SDS011;60269;52.502;16.732;2023-09-19T10:33:23;6.55;;;1.15;;
72319;SDS011;60269;52.502;16.732;2023-09-19T10:36:59;8.30;;;1.25;;
72319;SDS011;60269;52.502;16.732;2023-09-19T10:40:38;4.83;;;1.10;;
72319;SDS011;60269;52.502;16.732;2023-09-19T10:44:18;4.95;;;0.90;;
72319;SDS011;60269;52.502;16.732;2023-09-19T10:47:53;5.05;;;0.95;;
72319;SDS011;60269;52.502;16.732;2023-09-19T10:51:26;4.77;;;1.20;;
72319;SDS011;60269;52.502;16.732;2023-09-19T10:55:03;5.53;;;1.17;;
72319;SDS011;60269;52.502;16.732;2023-09-19T10:58:38;3.60;;;0.98;;
72319;SDS011;60269;52.502;16.732;2023-09-19T11:02:17;6.65;;;1.30;;
72319;SDS011;60269;52.502;16.732;2023-09-19T11:06:00;5.43;;;1.40;;
72319;SDS011;60269;52.502;16.732;2023-09-19T11:13:24;4.03;;;1.02;;
72319;SDS011;60269;52.502;16.732;2023-09-19T11:20:47;7.67;;;1.90;;
72319;SDS011;60269;52.502;16.732;2023-09-19T11:24:29;7.53;;;1.50;;
72319;SDS011;60269;52.502;16.732;2023-09-19T11:31:42;8.02;;;1.23;;
72319;SDS011;60269;52.502;16.732;2023-09-19T11:35:17;5.00;;;1.57;;
72319;SDS011;60269;52.502;16.732;2023-09-19T11:42:40;4.85;;;1.27;;
72319;SDS011;60269;52.502;16.732;2023-09-19T11:46:14;4.38;;;0.90;;
72319;SDS011;60269;52.502;16.732;2023-09-19T11:49:48;4.80;;;1.30;;
72319;SDS011;60269;52.502;16.732;2023-09-19T11:53:22;6.97;;;1.60;;
72319;SDS011;60269;52.502;16.732;2023-09-19T11:56:54;5.80;;;1.73;;
72319;SDS011;60269;52.502;16.732;2023-09-19T12:00:27;5.38;;;1.40;;
72319;SDS011;60269;52.502;16.732;2023-09-19T12:03:59;7.03;;;1.60;;
72319;SDS011;60269;52.502;16.732;2023-09-19T12:07:42;4.00;;;1.27;;
72319;SDS011;60269;52.502;16.732;2023-09-19T12:11:19;6.13;;;1.92;;
72319;SDS011;60269;52.502;16.732;2023-09-19T12:14:55;7.13;;;4.72;;
72319;SDS011;60269;52.502;16.732;2023-09-19T12:18:31;5.93;;;3.30;;
72319;SDS011;60269;52.502;16.732;2023-09-19T12:22:05;5.50;;;3.40;;
72319;SDS011;60269;52.502;16.732;2023-09-19T12:25:44;5.57;;;1.50;;
72319;SDS011;60269;52.502;16.732;2023-09-19T12:29:20;5.93;;;1.55;;
72319;SDS011;60269;52.502;16.732;2023-09-19T12:32:53;7.27;;;1.57;;
72319;SDS011;60269;52.502;16.732;2023-09-19T12:36:27;5.60;;;1.40;;
72319;SDS011;60269;52.502;16.732;2023-09-19T12:40:04;6.47;;;1.73;;
72319;SDS011;60269;52.502;16.732;2023-09-19T12:43:49;5.60;;;1.40;;
72319;SDS011;60269;52.502;16.732;2023-09-19T12:47:21;6.57;;;2.10;;
72319;SDS011;60269;52.502;16.732;2023-09-19T12:54:41;6.68;;;4.10;;
72319;SDS011;60269;52.502;16.732;2023-09-19T12:58:15;7.70;;;3.50;;
72319;SDS011;60269;52.502;16.732;2023-09-19T13:01:50;6.37;;;4.47;;
72319;SDS011;60269;52.502;16.732;2023-09-19T13:09:25;6.35;;;4.22;;
72319;SDS011;60269;52.502;16.732;2023-09-19T13:13:22;6.18;;;3.80;;
72319;SDS011;60269;52.502;16.732;2023-09-19T13:16:58;7.63;;;4.10;;
72319;SDS011;60269;52.502;16.732;2023-09-19T13:21:06;5.97;;;3.27;;
72319;SDS011;60269;52.502;16.732;2023-09-19T13:24:47;5.55;;;4.03;;
72319;SDS011;60269;52.502;16.732;2023-09-19T13:28:22;9.80;;;4.65;;
72319;SDS011;60269;52.502;16.732;2023-09-19T13:31:55;5.53;;;3.60;;
72319;SDS011;60269;52.502;16.732;2023-09-19T13:35:27;6.03;;;3.67;;
72319;SDS011;60269;52.502;16.732;2023-09-19T13:38:59;7.35;;;4.07;;
72319;SDS011;60269;52.502;16.732;2023-09-19T13:42:32;6.18;;;3.30;;
72319;SDS011;60269;52.502;16.732;2023-09-19T13:46:04;8.00;;;4.17;;
72319;SDS011;60269;52.502;16.732;2023-09-19T13:49:39;12.30;;;3.40;;
72319;SDS011;60269;52.502;16.732;2023-09-19T13:53:11;5.70;;;2.97;;
72319;SDS011;60269;52.502;16.732;2023-09-19T13:56:43;5.97;;;2.70;;
72319;SDS011;60269;52.502;16.732;2023-09-19T14:00:16;5.40;;;2.50;;
72319;SDS011;60269;52.502;16.732;2023-09-19T14:03:49;7.63;;;2.63;;
72319;SDS011;60269;52.502;16.732;2023-09-19T14:07:23;6.40;;;1.52;;
72319;SDS011;60269;52.502;16.732;2023-09-19T14:10:55;5.40;;;1.20;;
72319;SDS011;60269;52.502;16.732;2023-09-19T14:14:27;5.87;;;1.57;;
72319;SDS011;60269;52.502;16.732;2023-09-19T14:17:59;9.83;;;1.60;;
72319;SDS011;60269;52.502;16.732;2023-09-19T14:21:33;5.78;;;3.17;;
72319;SDS011;60269;52.502;16.732;2023-09-19T14:25:05;5.75;;;3.55;;
72319;SDS011;60269;52.502;16.732;2023-09-19T14:28:37;6.87;;;3.47;;
72319;SDS011;60269;52.502;16.732;2023-09-19T14:32:10;7.63;;;2.73;;
72319;SDS011;60269;52.502;16.732;2023-09-19T14:35:42;7.28;;;2.95;;
72319;SDS011;60269;52.502;16.732;2023-09-19T14:39:14;6.60;;;2.70;;
72319;SDS011;60269;52.502;16.732;2023-09-19T14:42:46;7.43;;;1.80;;
72319;SDS011;60269;52.502;16.732;2023-09-19T14:46:23;7.60;;;1.80;;
72319;SDS011;60269;52.502;16.732;2023-09-19T14:49:58;4.93;;;1.58;;
72319;SDS011;60269;52.502;16.732;2023-09-19T14:53:33;6.30;;;1.60;;
72319;SDS011;60269;52.502;16.732;2023-09-19T14:57:05;7.53;;;1.60;;
72319;SDS011;60269;52.502;16.732;2023-09-19T15:00:37;5.97;;;1.70;;
72319;SDS011;60269;52.502;16.732;2023-09-19T15:04:09;7.57;;;1.92;;
72319;SDS011;60269;52.502;16.732;2023-09-19T15:07:41;7.55;;;2.03;;
72319;SDS011;60269;52.502;16.732;2023-09-19T15:11:23;5.93;;;1.50;;
72319;SDS011;60269;52.502;16.732;2023-09-19T15:14:55;5.77;;;1.47;;
72319;SDS011;60269;52.502;16.732;2023-09-19T15:18:28;5.72;;;1.38;;
72319;SDS011;60269;52.502;16.732;2023-09-19T15:22:05;5.18;;;1.25;;
72319;SDS011;60269;52.502;16.732;2023-09-19T15:25:37;5.73;;;1.43;;
72319;SDS011;60269;52.502;16.732;2023-09-19T15:29:11;6.30;;;1.57;;
72319;SDS011;60269;52.502;16.732;2023-09-19T15:32:45;9.43;;;1.75;;
72319;SDS011;60269;52.502;16.732;2023-09-19T15:36:17;7.60;;;1.85;;
72319;SDS011;60269;52.502;16.732;2023-09-19T15:39:50;6.03;;;1.60;;
72319;SDS011;60269;52.502;16.732;2023-09-19T15:43:23;4.33;;;0.90;;
72319;SDS011;60269;52.502;16.732;2023-09-19T15:46:55;4.85;;;1.00;;
72319;SDS011;60269;52.502;16.732;2023-09-19T15:50:28;4.72;;;1.05;;
72319;SDS011;60269;52.502;16.732;2023-09-19T15:54:01;4.90;;;1.30;;
72319;SDS011;60269;52.502;16.732;2023-09-19T15:57:39;7.03;;;1.10;;
72319;SDS011;60269;52.502;16.732;2023-09-19T16:01:11;4.85;;;1.35;;
72319;SDS011;60269;52.502;16.732;2023-09-19T16:04:43;4.55;;;1.08;;
72319;SDS011;60269;52.502;16.732;2023-09-19T16:08:16;7.87;;;1.30;;
72319;SDS011;60269;52.502;16.732;2023-09-19T16:11:51;6.33;;;1.17;;
72319;SDS011;60269;52.502;16.732;2023-09-19T16:15:23;4.53;;;1.30;;
72319;SDS011;60269;52.502;16.732;2023-09-19T16:18:56;8.55;;;1.23;;
72319;SDS011;60269;52.502;16.732;2023-09-19T16:22:31;5.50;;;1.20;;
72319;SDS011;60269;52.502;16.732;2023-09-19T16:26:07;4.57;;;0.90;;
72319;SDS011;60269;52.502;16.732;2023-09-19T16:29:40;5.68;;;1.00;;
72319;SDS011;60269;52.502;16.732;2023-09-19T16:33:12;4.78;;;1.25;;
72319;SDS011;60269;52.502;16.732;2023-09-19T16:36:44;5.53;;;1.27;;
72319;SDS011;60269;52.502;16.732;2023-09-19T16:40:16;5.43;;;1.08;;
72319;SDS011;60269;52.502;16.732;2023-09-19T16:43:48;4.72;;;1.20;;
72319;SDS011;60269;52.502;16.732;2023-09-19T16:47:20;5.40;;;1.20;;
72319;SDS011;60269;52.502;16.732;2023-09-19T16:50:53;6.17;;;1.33;;
72319;SDS011;60269;52.502;16.732;2023-09-19T16:54:25;3.83;;;0.90;;
72319;SDS011;60269;52.502;16.732;2023-09-19T16:57:58;7.15;;;1.35;;
72319;SDS011;60269;52.502;16.732;2023-09-19T17:01:30;5.67;;;1.40;;
72319;SDS011;60269;52.502;16.732;2023-09-19T17:05:04;6.73;;;1.70;;
72319;SDS011;60269;52.502;16.732;2023-09-19T17:08:37;5.22;;;1.25;;
72319;SDS011;60269;52.502;16.732;2023-09-19T17:12:15;6.07;;;1.08;;
72319;SDS011;60269;52.502;16.732;2023-09-19T17:15:47;7.90;;;1.70;;
72319;SDS011;60269;52.502;16.732;2023-09-19T17:19:40;9.43;;;1.73;;
72319;SDS011;60269;52.502;16.732;2023-09-19T17:23:11;7.85;;;1.73;;
72319;SDS011;60269;52.502;16.732;2023-09-19T17:26:44;6.47;;;2.10;;
72319;SDS011;60269;52.502;16.732;2023-09-19T17:30:18;8.47;;;1.70;;
72319;SDS011;60269;52.502;16.732;2023-09-19T17:33:52;8.43;;;1.80;;
72319;SDS011;60269;52.502;16.732;2023-09-19T17:37:24;12.40;;;1.90;;
72319;SDS011;60269;52.502;16.732;2023-09-19T17:41:00;7.93;;;1.58;;
72319;SDS011;60269;52.502;16.732;2023-09-19T17:44:35;5.27;;;1.57;;
72319;SDS011;60269;52.502;16.732;2023-09-19T17:48:08;6.75;;;1.30;;
72319;SDS011;60269;52.502;16.732;2023-09-19T17:51:40;5.65;;;1.55;;
72319;SDS011;60269;52.502;16.732;2023-09-19T17:55:12;5.87;;;1.53;;
72319;SDS011;60269;52.502;16.732;2023-09-19T17:58:46;6.43;;;1.48;;
72319;SDS011;60269;52.502;16.732;2023-09-19T18:02:29;7.90;;;1.45;;
72319;SDS011;60269;52.502;16.732;2023-09-19T18:06:02;6.68;;;1.38;;
72319;SDS011;60269;52.502;16.732;2023-09-19T18:09:37;6.10;;;1.63;;
72319;SDS011;60269;52.502;16.732;2023-09-19T18:13:09;8.90;;;2.22;;
72319;SDS011;60269;52.502;16.732;2023-09-19T18:16:45;6.45;;;2.00;;
72319;SDS011;60269;52.502;16.732;2023-09-19T18:20:17;6.07;;;1.77;;
72319;SDS011;60269;52.502;16.732;2023-09-19T18:23:51;7.32;;;1.55;;
72319;SDS011;60269;52.502;16.732;2023-09-19T18:27:26;6.32;;;1.90;;
72319;SDS011;60269;52.502;16.732;2023-09-19T18:31:06;7.43;;;1.92;;
72319;SDS011;60269;52.502;16.732;2023-09-19T18:34:38;5.60;;;1.57;;
72319;SDS011;60269;52.502;16.732;2023-09-19T18:38:10;6.45;;;1.50;;
72319;SDS011;60269;52.502;16.732;2023-09-19T18:41:42;5.55;;;1.25;;
72319;SDS011;60269;52.502;16.732;2023-09-19T18:45:16;7.53;;;2.07;;
72319;SDS011;60269;52.502;16.732;2023-09-19T18:48:58;8.73;;;1.43;;
72319;SDS011;60269;52.502;16.732;2023-09-19T18:52:31;11.50;;;2.47;;
72319;SDS011;60269;52.502;16.732;2023-09-19T18:56:07;8.45;;;1.90;;
72319;SDS011;60269;52.502;16.732;2023-09-19T18:59:41;9.50;;;2.53;;
72319;SDS011;60269;52.502;16.732;2023-09-19T19:03:12;8.77;;;2.15;;
72319;SDS011;60269;52.502;16.732;2023-09-19T19:06:47;7.03;;;2.72;;
72319;SDS011;60269;52.502;16.732;2023-09-19T19:10:19;10.80;;;3.10;;
72319;SDS011;60269;52.502;16.732;2023-09-19T19:13:52;7.93;;;2.50;;
72319;SDS011;60269;52.502;16.732;2023-09-19T19:17:28;9.32;;;3.03;;
72319;SDS011;60269;52.502;16.732;2023-09-19T19:21:05;11.57;;;3.00;;
72319;SDS011;60269;52.502;16.732;2023-09-19T19:24:49;15.50;;;5.27;;
72319;SDS011;60269;52.502;16.732;2023-09-19T19:28:23;11.87;;;3.90;;
72319;SDS011;60269;52.502;16.732;2023-09-19T19:31:57;9.68;;;3.38;;
72319;SDS011;60269;52.502;16.732;2023-09-19T19:35:32;10.43;;;2.97;;
72319;SDS011;60269;52.502;16.732;2023-09-19T19:39:04;8.20;;;2.83;;
72319;SDS011;60269;52.502;16.732;2023-09-19T19:42:37;8.00;;;2.63;;
72319;SDS011;60269;52.502;16.732;2023-09-19T19:46:09;8.52;;;2.40;;
72319;SDS011;60269;52.502;16.732;2023-09-19T19:49:42;5.95;;;2.25;;
72319;SDS011;60269;52.502;16.732;2023-09-19T19:53:16;7.33;;;2.10;;
72319;SDS011;60269;52.502;16.732;2023-09-19T19:56:49;10.93;;;2.88;;
72319;SDS011;60269;52.502;16.732;2023-09-19T20:00:21;7.03;;;2.45;;
72319;SDS011;60269;52.502;16.732;2023-09-19T20:03:54;6.83;;;2.40;;
72319;SDS011;60269;52.502;16.732;2023-09-19T20:07:29;9.48;;;2.10;;
72319;SDS011;60269;52.502;16.732;2023-09-19T20:11:02;10.25;;;2.65;;
72319;SDS011;60269;52.502;16.732;2023-09-19T20:14:35;8.27;;;2.78;;
72319;SDS011;60269;52.502;16.732;2023-09-19T20:18:09;7.33;;;2.63;;
72319;SDS011;60269;52.502;16.732;2023-09-19T20:21:44;8.07;;;2.30;;
72319;SDS011;60269;52.502;16.732;2023-09-19T20:25:16;12.05;;;3.63;;
72319;SDS011;60269;52.502;16.732;2023-09-19T20:28:49;10.23;;;3.10;;
72319;SDS011;60269;52.502;16.732;2023-09-19T20:32:21;11.10;;;2.97;;
72319;SDS011;60269;52.502;16.732;2023-09-19T20:35:56;10.35;;;3.50;;
72319;SDS011;60269;52.502;16.732;2023-09-19T20:39:30;9.77;;;3.55;;
72319;SDS011;60269;52.502;16.732;2023-09-19T20:43:02;10.80;;;3.20;;
72319;SDS011;60269;52.502;16.732;2023-09-19T20:46:36;11.68;;;3.30;;
72319;SDS011;60269;52.502;16.732;2023-09-19T20:50:11;10.55;;;3.20;;
72319;SDS011;60269;52.502;16.732;2023-09-19T20:53:44;10.23;;;2.80;;
72319;SDS011;60269;52.502;16.732;2023-09-19T20:57:17;8.80;;;2.72;;
72319;SDS011;60269;52.502;16.732;2023-09-19T21:00:49;14.75;;;3.55;;
72319;SDS011;60269;52.502;16.732;2023-09-19T21:04:21;11.52;;;2.97;;
72319;SDS011;60269;52.502;16.732;2023-09-19T21:07:53;9.23;;;2.70;;
72319;SDS011;60269;52.502;16.732;2023-09-19T21:11:25;12.52;;;3.10;;
72319;SDS011;60269;52.502;16.732;2023-09-19T21:14:59;10.60;;;2.85;;
72319;SDS011;60269;52.502;16.732;2023-09-19T21:18:32;9.17;;;2.53;;
72319;SDS011;60269;52.502;16.732;2023-09-19T21:22:05;8.85;;;2.33;;
72319;SDS011;60269;52.502;16.732;2023-09-19T21:25:37;10.73;;;2.88;;
72319;SDS011;60269;52.502;16.732;2023-09-19T21:29:09;9.70;;;2.70;;
72319;SDS011;60269;52.502;16.732;2023-09-19T21:32:41;10.27;;;3.20;;
72319;SDS011;60269;52.502;16.732;2023-09-19T21:36:13;9.75;;;2.72;;
72319;SDS011;60269;52.502;16.732;2023-09-19T21:39:52;7.50;;;2.25;;
72319;SDS011;60269;52.502;16.732;2023-09-19T21:43:24;10.43;;;3.07;;
72319;SDS011;60269;52.502;16.732;2023-09-19T21:46:58;7.68;;;2.33;;
72319;SDS011;60269;52.502;16.732;2023-09-19T21:50:32;8.57;;;2.30;;
72319;SDS011;60269;52.502;16.732;2023-09-19T21:54:04;9.03;;;3.17;;
72319;SDS011;60269;52.502;16.732;2023-09-19T21:57:36;7.80;;;2.40;;
72319;SDS011;60269;52.502;16.732;2023-09-19T22:01:09;7.63;;;2.40;;
72319;SDS011;60269;52.502;16.732;2023-09-19T22:04:42;9.82;;;2.65;;